sensor_id;sensor_type;location;lat;lon;timestamp;temperature;humidity
35305;DHT22;26433;48.034;-1.764;2023-04-03T05:02:07;7.40;88.10
35305;DHT22;26433;48.034;-1.764;2023-04-03T05:07:12;7.40;88.10
35305;DHT22;26433;48.034;-1.764;2023-04-03T05:12:16;7.50;87.90
35305;DHT22;26433;48.034;-1.764;2023-04-03T05:17:22;7.40;87.70
35305;DHT22;26433;48.034;-1.764;2023-04-03T05:22:28;7.40;87.90
35305;DHT22;26433;48.034;-1.764;2023-04-03T05:27:33;7.50;88.10
35305;DHT22;26433;48.034;-1.764;2023-04-03T05:32:38;7.50;88.00
35305;DHT22;26433;48.034;-1.764;2023-04-03T05:37:43;7.50;87.80
35305;DHT22;26433;48.034;-1.764;2023-04-03T05:47:54;7.50;86.80
35305;DHT22;26433;48.034;-1.764;2023-04-03T05:52:59;7.50;87.30
35305;DHT22;26433;48.034;-1.764;2023-04-03T06:03:11;7.50;87.30
35305;DHT22;26433;48.034;-1.764;2023-04-03T06:13:20;7.50;87.10
35305;DHT22;26433;48.034;-1.764;2023-04-03T06:18:27;7.50;86.50
35305;DHT22;26433;48.034;-1.764;2023-04-03T06:33:41;7.80;85.80
35305;DHT22;26433;48.034;-1.764;2023-04-03T06:48:54;8.10;84.40
35305;DHT22;26433;48.034;-1.764;2023-04-03T06:53:58;8.10;83.90
35305;DHT22;26433;48.034;-1.764;2023-04-03T07:04:08;8.20;82.90
35305;DHT22;26433;48.034;-1.764;2023-04-03T09:23:44;9.80;77.30
35305;DHT22;26433;48.034;-1.764;2023-04-03T09:33:58;10.20;76.30
35305;DHT22;26433;48.034;-1.764;2023-04-03T09:39:05;10.30;75.60
35305;DHT22;26433;48.034;-1.764;2023-04-03T09:44:22;10.30;75.60
35305;DHT22;26433;48.034;-1.764;2023-04-03T09:54:36;10.30;75.50
35305;DHT22;26433;48.034;-1.764;2023-04-03T09:59:48;10.30;75.50
35305;DHT22;26433;48.034;-1.764;2023-04-03T10:10:19;10.50;75.00
35305;DHT22;26433;48.034;-1.764;2023-04-03T10:15:27;10.50;75.10
35305;DHT22;26433;48.034;-1.764;2023-04-03T10:20:36;10.50;75.00
35305;DHT22;26433;48.034;-1.764;2023-04-03T10:25:45;10.60;74.90
35305;DHT22;26433;48.034;-1.764;2023-04-03T10:30:58;11.60;75.40
35305;DHT22;26433;48.034;-1.764;2023-04-03T10:36:16;10.80;74.50
35305;DHT22;26433;48.034;-1.764;2023-04-03T10:41:29;10.70;74.80
35305;DHT22;26433;48.034;-1.764;2023-04-03T10:46:37;10.20;74.40
35305;DHT22;26433;48.034;-1.764;2023-04-03T10:51:44;10.90;74.30
35305;DHT22;26433;48.034;-1.764;2023-04-03T10:56:52;11.00;74.20
35305;DHT22;26433;48.034;-1.764;2023-04-03T11:02:17;11.10;73.90
35305;DHT22;26433;48.034;-1.764;2023-04-03T11:07:25;11.00;73.60
35305;DHT22;26433;48.034;-1.764;2023-04-03T11:12:38;11.20;73.60
35305;DHT22;26433;48.034;-1.764;2023-04-03T11:17:48;11.40;73.30
35305;DHT22;26433;48.034;-1.764;2023-04-03T11:22:58;11.50;73.10
35305;DHT22;26433;48.034;-1.764;2023-04-03T11:28:09;11.80;73.10
35305;DHT22;26433;48.034;-1.764;2023-04-03T11:33:23;12.30;71.10
35305;DHT22;26433;48.034;-1.764;2023-04-03T11:38:35;12.80;69.70
35305;DHT22;26433;48.034;-1.764;2023-04-03T11:43:56;13.10;69.00
35305;DHT22;26433;48.034;-1.764;2023-04-03T11:54:35;15.20;65.60
35305;DHT22;26433;48.034;-1.764;2023-04-03T11:59:48;16.10;62.70
35305;DHT22;26433;48.034;-1.764;2023-04-03T12:05:25;16.00;63.80
35305;DHT22;26433;48.034;-1.764;2023-04-03T12:10:30;16.80;62.30
35305;DHT22;26433;48.034;-1.764;2023-04-03T12:15:51;17.10;62.30
35305;DHT22;26433;48.034;-1.764;2023-04-03T12:20:57;17.30;61.60
35305;DHT22;26433;48.034;-1.764;2023-04-03T12:26:05;17.70;61.60
35305;DHT22;26433;48.034;-1.764;2023-04-03T12:31:10;18.40;60.10
35305;DHT22;26433;48.034;-1.764;2023-04-03T12:36:21;19.20;58.60
35305;DHT22;26433;48.034;-1.764;2023-04-03T12:41:36;19.90;57.70
35305;DHT22;26433;48.034;-1.764;2023-04-03T12:46:45;20.20;56.50
35305;DHT22;26433;48.034;-1.764;2023-04-03T12:51:52;20.30;56.20
35305;DHT22;26433;48.034;-1.764;2023-04-03T12:57:09;20.90;55.90
35305;DHT22;26433;48.034;-1.764;2023-04-03T13:02:26;21.30;53.90
35305;DHT22;26433;48.034;-1.764;2023-04-03T13:07:32;21.90;53.90
35305;DHT22;26433;48.034;-1.764;2023-04-03T13:12:46;22.20;53.00
35305;DHT22;26433;48.034;-1.764;2023-04-03T13:17:52;22.70;51.80
35305;DHT22;26433;48.034;-1.764;2023-04-03T13:23:00;22.80;52.50
35305;DHT22;26433;48.034;-1.764;2023-04-03T13:28:06;22.50;51.90
35305;DHT22;26433;48.034;-1.764;2023-04-03T13:33:23;22.60;52.50
35305;DHT22;26433;48.034;-1.764;2023-04-03T13:38:29;22.90;51.00
35305;DHT22;26433;48.034;-1.764;2023-04-03T13:43:36;22.80;50.90
35305;DHT22;26433;48.034;-1.764;2023-04-03T13:48:46;22.60;51.40
35305;DHT22;26433;48.034;-1.764;2023-04-03T13:53:53;23.00;50.60
35305;DHT22;26433;48.034;-1.764;2023-04-03T13:59:03;23.30;49.80
35305;DHT22;26433;48.034;-1.764;2023-04-03T14:04:16;23.20;49.30
35305;DHT22;26433;48.034;-1.764;2023-04-03T14:09:22;23.10;49.10
35305;DHT22;26433;48.034;-1.764;2023-04-03T14:14:27;23.20;49.30
35305;DHT22;26433;48.034;-1.764;2023-04-03T14:19:35;23.30;49.10
35305;DHT22;26433;48.034;-1.764;2023-04-03T14:24:38;23.20;49.20
35305;DHT22;26433;48.034;-1.764;2023-04-03T14:29:42;23.10;49.00
35305;DHT22;26433;48.034;-1.764;2023-04-03T14:34:49;23.20;49.40
35305;DHT22;26433;48.034;-1.764;2023-04-03T14:39:55;23.10;49.20
35305;DHT22;26433;48.034;-1.764;2023-04-03T14:45:00;23.20;49.30
35305;DHT22;26433;48.034;-1.764;2023-04-03T14:50:07;22.60;49.60
35305;DHT22;26433;48.034;-1.764;2023-04-03T14:55:12;22.50;49.70
35305;DHT22;26433;48.034;-1.764;2023-04-03T15:00:19;22.40;49.30
35305;DHT22;26433;48.034;-1.764;2023-04-03T15:05:25;21.90;49.30
35305;DHT22;26433;48.034;-1.764;2023-04-03T15:10:30;21.50;49.60
35305;DHT22;26433;48.034;-1.764;2023-04-03T15:15:36;21.20;49.60
35305;DHT22;26433;48.034;-1.764;2023-04-03T15:20:42;20.70;50.20
35305;DHT22;26433;48.034;-1.764;2023-04-03T15:25:47;20.00;50.90
35305;DHT22;26433;48.034;-1.764;2023-04-03T15:30:52;19.80;51.30
35305;DHT22;26433;48.034;-1.764;2023-04-03T15:35:57;19.30;51.80
35305;DHT22;26433;48.034;-1.764;2023-04-03T15:41:18;18.80;52.00
35305;DHT22;26433;48.034;-1.764;2023-04-03T15:51:27;18.10;51.90
35305;DHT22;26433;48.034;-1.764;2023-04-03T15:56:31;18.00;52.60
35305;DHT22;26433;48.034;-1.764;2023-04-03T16:01:36;17.60;52.40
35305;DHT22;26433;48.034;-1.764;2023-04-03T16:06:42;17.30;52.50
35305;DHT22;26433;48.034;-1.764;2023-04-03T16:11:46;17.30;53.70
35305;DHT22;26433;48.034;-1.764;2023-04-03T16:21:55;16.50;53.20
35305;DHT22;26433;48.034;-1.764;2023-04-03T16:26:59;16.50;54.20
35305;DHT22;26433;48.034;-1.764;2023-04-03T16:37:09;16.10;53.30
35305;DHT22;26433;48.034;-1.764;2023-04-03T16:42:12;16.00;54.10
35305;DHT22;26433;48.034;-1.764;2023-04-03T16:47:16;16.00;54.10
35305;DHT22;26433;48.034;-1.764;2023-04-03T16:52:22;15.90;54.10
35305;DHT22;26433;48.034;-1.764;2023-04-03T17:07:35;15.40;53.30
35305;DHT22;26433;48.034;-1.764;2023-04-03T17:22:48;15.20;53.80
35305;DHT22;26433;48.034;-1.764;2023-04-03T17:38:01;14.90;54.20
35305;DHT22;26433;48.034;-1.764;2023-04-03T17:53:15;14.80;54.40
35305;DHT22;26433;48.034;-1.764;2023-04-03T18:08:28;14.20;62.80
35305;DHT22;26433;48.034;-1.764;2023-04-03T18:23:47;14.00;56.00
35305;DHT22;26433;48.034;-1.764;2023-04-03T18:28:54;13.90;56.20
35305;DHT22;26433;48.034;-1.764;2023-04-03T18:39:05;13.70;56.70
35305;DHT22;26433;48.034;-1.764;2023-04-03T18:44:12;13.60;57.20
35305;DHT22;26433;48.034;-1.764;2023-04-03T18:54:23;13.40;57.30
35305;DHT22;26433;48.034;-1.764;2023-04-03T19:09:36;13.00;58.10
35305;DHT22;26433;48.034;-1.764;2023-04-03T19:24:50;12.60;59.00
35305;DHT22;26433;48.034;-1.764;2023-04-03T19:34:57;12.50;59.30
35305;DHT22;26433;48.034;-1.764;2023-04-03T19:40:03;12.30;59.90
35305;DHT22;26433;48.034;-1.764;2023-04-03T19:45:09;12.20;60.30
35305;DHT22;26433;48.034;-1.764;2023-04-03T19:55:18;11.90;60.80
35305;DHT22;26433;48.034;-1.764;2023-04-03T20:05:26;11.80;60.90
35305;DHT22;26433;48.034;-1.764;2023-04-03T20:10:31;11.70;61.80
35305;DHT22;26433;48.034;-1.764;2023-04-03T20:15:36;11.60;61.80
35305;DHT22;26433;48.034;-1.764;2023-04-03T20:25:48;11.50;61.60
35305;DHT22;26433;48.034;-1.764;2023-04-03T20:36:14;11.40;61.60
35305;DHT22;26433;48.034;-1.764;2023-04-03T20:41:19;11.30;61.70
35305;DHT22;26433;48.034;-1.764;2023-04-03T20:51:50;11.20;69.70
35305;DHT22;26433;48.034;-1.764;2023-04-03T20:56:55;11.20;62.40
35305;DHT22;26433;48.034;-1.764;2023-04-03T21:23:54;10.90;63.10
35305;DHT22;26433;48.034;-1.764;2023-04-03T21:28:58;10.80;63.20
35305;DHT22;26433;48.034;-1.764;2023-04-03T21:34:02;10.80;63.40
35305;DHT22;26433;48.034;-1.764;2023-04-03T21:39:07;10.70;63.50
35305;DHT22;26433;48.034;-1.764;2023-04-03T21:44:10;10.70;63.60
35305;DHT22;26433;48.034;-1.764;2023-04-03T21:49:15;10.60;63.80
35305;DHT22;26433;48.034;-1.764;2023-04-03T21:54:19;10.50;63.90
35305;DHT22;26433;48.034;-1.764;2023-04-03T21:59:23;10.50;64.10
35305;DHT22;26433;48.034;-1.764;2023-04-03T22:04:28;10.50;64.30
35305;DHT22;26433;48.034;-1.764;2023-04-03T22:09:32;10.40;64.50
35305;DHT22;26433;48.034;-1.764;2023-04-03T22:14:35;10.30;64.60
35305;DHT22;26433;48.034;-1.764;2023-04-03T22:19:41;10.10;65.00
35305;DHT22;26433;48.034;-1.764;2023-04-03T22:24:44;9.90;65.70
35305;DHT22;26433;48.034;-1.764;2023-04-03T22:29:48;9.70;66.00
